CheckWX is a tool to help pilots better visualize weather data.  It is not intended as a substitute for an official pre-flight weather briefing.

12:13:38 UTC

KEMT METAR
San Gabriel Valley Airport
El Monte, California, USA
Current

10 hours ago

KEMT 250145Z 21006KT 10SM CLR 19/09 A3013
Observed
Mar-25 @ 01:45 UTC
Wind
  • 210° at 6 KTS
Visibility
10 SM
Flight Rules
VFR
Cloud Levels
  • Clear skies
Temperature
19°C / 66°F
Dewpoint
C / 48°F
Humidity
52%
Altimeter
30.13" Hg
Pressure
1020.32 hPa
Previous

11 hours ago

KEMT 250045Z 21006KT 10SM CLR 22/08 A3011
Observed
Mar-25 @ 00:45 UTC
Wind
  • 210° at 6 KTS
Visibility
10 SM
Flight Rules
VFR
Cloud Levels
  • Clear skies
Temperature
22°C / 72°F
Dewpoint
C / 46°F
Humidity
41%
Altimeter
30.11" Hg
Pressure
1019.62 hPa
Previous

12 hours ago

KEMT 242345Z 17005KT 10SM CLR 23/07 A3011
Observed
Mar-24 @ 23:45 UTC
Wind
  • 170° at 5 KTS
Visibility
10 SM
Flight Rules
VFR
Cloud Levels
  • Clear skies
Temperature
23°C / 73°F
Dewpoint
C / 45°F
Humidity
36%
Altimeter
30.11" Hg
Pressure
1019.62 hPa